KRCA/RCA METAR and TAF weather

Enter ICAO airport designator
Station Type Date Time Source
KRCA METAR 2019/02/21 15:56 UTC NOAA

KRCA 211556Z AUTO 00000KT 10SM CLR M12/M16 A3000 RMK AO2 SLP228 T11171164


Station Type Date Time Source
KRCA Decoded METAR 2019/02/21 15:56 UTC NOAA

Ellsworth Air Force Base, SD, United States (KRCA) 44-09N 103-06W
Feb 21, 2019 - 10:56 AM EST / 2019.02.21 1556 UTC
Wind: Calm:0
Visibility: 10 mile(s):0
Sky conditions: clear
Temperature: 10.9 F (-11.7 C)
Dew Point: 2.5 F (-16.4 C)
Relative Humidity: 68%
Pressure (altimeter): 30 in. Hg (1015 hPa)
ob: KRCA 211556Z AUTO 00000KT 10SM CLR M12/M16 A3000 RMK AO2 SLP228 T11171164
cycle: 16

Station Type Date Time Source
KRCA TAF 2019/02/21 11:12 UTC NOAA

TAF KRCA 211100Z 2111/2217 VRB06KT 9999 FEW020 QNH2990INS
BECMG 2122/2123 36009KT 9999 SCT007 QNH3003INS
BECMG 2200/2201 VRB06KT 1600 -SN BKN008 620087 QNH3008INS TXM07/2120Z TNM15/2111Z


Example: see airport list